sensor_id;sensor_type;location;lat;lon;timestamp;pressure;altitude;pressure_sealevel;temperature;humidity
6395;BME280;3230;42.588;23.358;2023-06-22T00:00:55;91580.81;;;18.02;83.88
6395;BME280;3230;42.588;23.358;2023-06-22T00:03:22;91573.47;;;17.99;83.61
6395;BME280;3230;42.588;23.358;2023-06-22T00:05:48;91572.38;;;18.00;83.84
6395;BME280;3230;42.588;23.358;2023-06-22T00:08:15;91577.56;;;18.05;84.05
6395;BME280;3230;42.588;23.358;2023-06-22T00:10:41;91574.41;;;18.03;84.02
6395;BME280;3230;42.588;23.358;2023-06-22T00:13:07;91579.09;;;18.06;83.84
6395;BME280;3230;42.588;23.358;2023-06-22T00:15:33;91570.69;;;18.04;84.44
6395;BME280;3230;42.588;23.358;2023-06-22T00:18:00;91570.50;;;18.00;83.97
6395;BME280;3230;42.588;23.358;2023-06-22T00:20:26;91575.44;;;17.93;85.38
6395;BME280;3230;42.588;23.358;2023-06-22T00:22:54;91566.22;;;17.90;86.31
6395;BME280;3230;42.588;23.358;2023-06-22T00:25:19;91575.25;;;17.89;85.62
6395;BME280;3230;42.588;23.358;2023-06-22T00:27:45;91565.25;;;17.86;86.46
6395;BME280;3230;42.588;23.358;2023-06-22T00:30:11;91562.25;;;17.79;86.71
6395;BME280;3230;42.588;23.358;2023-06-22T00:32:36;91556.97;;;17.79;86.74
6395;BME280;3230;42.588;23.358;2023-06-22T00:35:02;91547.16;;;17.80;87.53
6395;BME280;3230;42.588;23.358;2023-06-22T00:37:27;91549.00;;;17.79;87.87
6395;BME280;3230;42.588;23.358;2023-06-22T00:39:57;91555.53;;;17.73;88.44
6395;BME280;3230;42.588;23.358;2023-06-22T00:42:23;91560.47;;;17.66;88.28
6395;BME280;3230;42.588;23.358;2023-06-22T00:44:48;91558.28;;;17.59;88.11
6395;BME280;3230;42.588;23.358;2023-06-22T00:47:16;91555.63;;;17.59;88.56
6395;BME280;3230;42.588;23.358;2023-06-22T00:49:43;91553.09;;;17.54;88.65
6395;BME280;3230;42.588;23.358;2023-06-22T00:52:08;91556.03;;;17.52;88.32
6395;BME280;3230;42.588;23.358;2023-06-22T00:54:41;91547.31;;;17.52;87.69
6395;BME280;3230;42.588;23.358;2023-06-22T00:57:11;91554.66;;;17.55;87.79
6395;BME280;3230;42.588;23.358;2023-06-22T00:59:37;91556.22;;;17.56;87.98
6395;BME280;3230;42.588;23.358;2023-06-22T01:02:04;91553.16;;;17.63;87.56
6395;BME280;3230;42.588;23.358;2023-06-22T01:04:37;91545.63;;;17.56;87.39
6395;BME280;3230;42.588;23.358;2023-06-22T01:07:30;91554.22;;;17.62;88.14
6395;BME280;3230;42.588;23.358;2023-06-22T01:12:44;91560.28;;;17.62;88.88
6395;BME280;3230;42.588;23.358;2023-06-22T01:15:17;91554.22;;;17.62;88.98
6395;BME280;3230;42.588;23.358;2023-06-22T01:17:45;91547.50;;;17.55;89.49
6395;BME280;3230;42.588;23.358;2023-06-22T01:20:12;91553.88;;;17.54;89.06
6395;BME280;3230;42.588;23.358;2023-06-22T01:22:54;91541.63;;;17.36;89.86
6395;BME280;3230;42.588;23.358;2023-06-22T01:25:33;91544.97;;;17.50;89.66
6395;BME280;3230;42.588;23.358;2023-06-22T01:30:45;91555.09;;;17.48;90.65
6395;BME280;3230;42.588;23.358;2023-06-22T01:33:12;91542.75;;;17.43;90.81
6395;BME280;3230;42.588;23.358;2023-06-22T01:35:38;91553.69;;;17.51;90.71
6395;BME280;3230;42.588;23.358;2023-06-22T01:38:05;91560.75;;;17.55;91.39
6395;BME280;3230;42.588;23.358;2023-06-22T01:40:33;91556.44;;;17.37;91.48
6395;BME280;3230;42.588;23.358;2023-06-22T01:43:00;91547.69;;;17.36;91.59
6395;BME280;3230;42.588;23.358;2023-06-22T01:45:27;91551.06;;;17.28;91.83
6395;BME280;3230;42.588;23.358;2023-06-22T01:47:53;91557.91;;;17.29;92.21
6395;BME280;3230;42.588;23.358;2023-06-22T01:50:19;91555.88;;;17.26;92.59
6395;BME280;3230;42.588;23.358;2023-06-22T01:52:45;91546.91;;;17.36;91.46
6395;BME280;3230;42.588;23.358;2023-06-22T01:55:11;91564.06;;;17.38;91.99
6395;BME280;3230;42.588;23.358;2023-06-22T01:57:36;91560.28;;;17.31;92.59
6395;BME280;3230;42.588;23.358;2023-06-22T02:00:07;91567.78;;;17.37;92.27
6395;BME280;3230;42.588;23.358;2023-06-22T02:02:59;91562.00;;;17.35;92.99
6395;BME280;3230;42.588;23.358;2023-06-22T02:05:30;91558.47;;;17.40;92.74
6395;BME280;3230;42.588;23.358;2023-06-22T02:10:31;91569.22;;;17.43;93.61
6395;BME280;3230;42.588;23.358;2023-06-22T02:12:57;91576.81;;;17.36;94.33
6395;BME280;3230;42.588;23.358;2023-06-22T02:15:24;91580.69;;;17.30;95.15
6395;BME280;3230;42.588;23.358;2023-06-22T02:17:50;91583.50;;;17.34;95.48
6395;BME280;3230;42.588;23.358;2023-06-22T02:20:16;91572.41;;;17.32;95.66
6395;BME280;3230;42.588;23.358;2023-06-22T02:22:42;91568.94;;;17.22;96.74
6395;BME280;3230;42.588;23.358;2023-06-22T02:25:07;91570.16;;;17.16;96.79
6395;BME280;3230;42.588;23.358;2023-06-22T02:27:33;91556.28;;;17.19;96.84
6395;BME280;3230;42.588;23.358;2023-06-22T02:29:58;91561.50;;;17.24;96.94
6395;BME280;3230;42.588;23.358;2023-06-22T02:32:24;91560.84;;;17.05;98.42
6395;BME280;3230;42.588;23.358;2023-06-22T02:34:49;91566.56;;;16.98;98.65
6395;BME280;3230;42.588;23.358;2023-06-22T02:37:14;91558.56;;;17.12;98.00
6395;BME280;3230;42.588;23.358;2023-06-22T02:39:40;91559.56;;;17.16;97.93
6395;BME280;3230;42.588;23.358;2023-06-22T02:42:05;91558.34;;;17.22;98.32
6395;BME280;3230;42.588;23.358;2023-06-22T02:44:31;91555.53;;;17.19;99.33
6395;BME280;3230;42.588;23.358;2023-06-22T02:46:56;91563.41;;;17.10;99.64
6395;BME280;3230;42.588;23.358;2023-06-22T02:49:22;91558.75;;;17.16;99.59
6395;BME280;3230;42.588;23.358;2023-06-22T02:51:48;91560.81;;;17.19;99.64
6395;BME280;3230;42.588;23.358;2023-06-22T02:54:13;91562.97;;;17.17;99.60
6395;BME280;3230;42.588;23.358;2023-06-22T02:56:39;91555.75;;;17.08;99.93
6395;BME280;3230;42.588;23.358;2023-06-22T02:59:06;91564.25;;;17.19;100.00
6395;BME280;3230;42.588;23.358;2023-06-22T03:01:32;91565.56;;;17.08;100.00
6395;BME280;3230;42.588;23.358;2023-06-22T03:04:06;91569.91;;;17.04;100.00
6395;BME280;3230;42.588;23.358;2023-06-22T03:06:32;91569.34;;;17.16;100.00
6395;BME280;3230;42.588;23.358;2023-06-22T03:09:01;91570.50;;;17.23;100.00
6395;BME280;3230;42.588;23.358;2023-06-22T03:11:26;91567.03;;;17.37;100.00
6395;BME280;3230;42.588;23.358;2023-06-22T03:13:52;91564.38;;;17.37;100.00
6395;BME280;3230;42.588;23.358;2023-06-22T03:16:18;91567.78;;;17.60;100.00
6395;BME280;3230;42.588;23.358;2023-06-22T03:18:44;91565.72;;;17.57;100.00
6395;BME280;3230;42.588;23.358;2023-06-22T03:21:10;91572.66;;;17.67;100.00
6395;BME280;3230;42.588;23.358;2023-06-22T03:23:35;91569.63;;;17.82;100.00
6395;BME280;3230;42.588;23.358;2023-06-22T03:26:02;91583.09;;;17.95;100.00
6395;BME280;3230;42.588;23.358;2023-06-22T03:28:27;91585.63;;;18.00;100.00
6395;BME280;3230;42.588;23.358;2023-06-22T03:30:52;91582.41;;;18.12;99.35
6395;BME280;3230;42.588;23.358;2023-06-22T03:33:18;91584.81;;;18.22;99.28
6395;BME280;3230;42.588;23.358;2023-06-22T03:35:43;91595.16;;;18.41;97.56
6395;BME280;3230;42.588;23.358;2023-06-22T03:38:09;91585.03;;;18.52;95.39
6395;BME280;3230;42.588;23.358;2023-06-22T03:40:34;91593.34;;;18.68;94.41
6395;BME280;3230;42.588;23.358;2023-06-22T03:43:00;91594.63;;;18.79;94.95
6395;BME280;3230;42.588;23.358;2023-06-22T03:45:25;91592.78;;;18.97;91.62
6395;BME280;3230;42.588;23.358;2023-06-22T03:47:50;91593.25;;;19.08;91.19
6395;BME280;3230;42.588;23.358;2023-06-22T03:50:16;91589.22;;;19.20;92.30
6395;BME280;3230;42.588;23.358;2023-06-22T03:52:41;91592.50;;;19.34;92.17
6395;BME280;3230;42.588;23.358;2023-06-22T03:55:07;91588.41;;;19.54;92.48
6395;BME280;3230;42.588;23.358;2023-06-22T03:57:33;91591.69;;;19.69;91.99
6395;BME280;3230;42.588;23.358;2023-06-22T03:59:59;91600.13;;;19.79;91.89
6395;BME280;3230;42.588;23.358;2023-06-22T04:02:25;91595.25;;;19.99;91.12
6395;BME280;3230;42.588;23.358;2023-06-22T04:04:51;91612.09;;;20.21;90.64
6395;BME280;3230;42.588;23.358;2023-06-22T04:07:16;91604.06;;;20.29;90.66
6395;BME280;3230;42.588;23.358;2023-06-22T04:09:43;91608.53;;;20.47;91.33
6395;BME280;3230;42.588;23.358;2023-06-22T04:12:09;91611.56;;;20.66;87.82
6395;BME280;3230;42.588;23.358;2023-06-22T04:14:34;91618.38;;;20.85;85.89
6395;BME280;3230;42.588;23.358;2023-06-22T04:17:01;91621.88;;;21.06;82.20
6395;BME280;3230;42.588;23.358;2023-06-22T04:19:27;91612.56;;;20.91;83.29
6395;BME280;3230;42.588;23.358;2023-06-22T04:21:52;91612.09;;;20.89;81.49
6395;BME280;3230;42.588;23.358;2023-06-22T04:24:18;91611.22;;;21.06;80.64
6395;BME280;3230;42.588;23.358;2023-06-22T04:26:43;91614.72;;;20.98;83.44
6395;BME280;3230;42.588;23.358;2023-06-22T04:29:10;91615.03;;;20.97;83.87
6395;BME280;3230;42.588;23.358;2023-06-22T04:31:36;91615.66;;;20.72;82.21
6395;BME280;3230;42.588;23.358;2023-06-22T04:34:03;91602.63;;;20.71;82.38
6395;BME280;3230;42.588;23.358;2023-06-22T04:36:37;91600.22;;;20.87;82.26
6395;BME280;3230;42.588;23.358;2023-06-22T04:39:05;91595.44;;;21.01;83.30
6395;BME280;3230;42.588;23.358;2023-06-22T04:41:31;91603.56;;;21.68;81.51
6395;BME280;3230;42.588;23.358;2023-06-22T04:44:02;91613.16;;;23.39;73.83
6395;BME280;3230;42.588;23.358;2023-06-22T04:46:30;91605.88;;;23.93;69.11
6395;BME280;3230;42.588;23.358;2023-06-22T04:48:55;91607.78;;;24.85;68.36
6395;BME280;3230;42.588;23.358;2023-06-22T04:51:20;91623.19;;;27.38;56.06
6395;BME280;3230;42.588;23.358;2023-06-22T04:53:46;91617.94;;;29.37;48.90
6395;BME280;3230;42.588;23.358;2023-06-22T04:56:12;91614.00;;;29.90;46.12
6395;BME280;3230;42.588;23.358;2023-06-22T04:58:37;91609.88;;;30.33;46.27
6395;BME280;3230;42.588;23.358;2023-06-22T05:01:03;91623.78;;;31.94;42.90
6395;BME280;3230;42.588;23.358;2023-06-22T05:03:28;91617.97;;;31.92;41.54
6395;BME280;3230;42.588;23.358;2023-06-22T05:05:54;91620.38;;;31.68;42.32
6395;BME280;3230;42.588;23.358;2023-06-22T05:08:19;91622.50;;;32.27;41.02
6395;BME280;3230;42.588;23.358;2023-06-22T05:10:45;91622.97;;;35.00;35.56
6395;BME280;3230;42.588;23.358;2023-06-22T05:13:10;91637.22;;;36.03;32.10
6395;BME280;3230;42.588;23.358;2023-06-22T05:15:35;91637.16;;;35.83;32.31
6395;BME280;3230;42.588;23.358;2023-06-22T05:18:05;91648.41;;;36.86;30.29
6395;BME280;3230;42.588;23.358;2023-06-22T05:20:30;91642.03;;;36.92;31.28
6395;BME280;3230;42.588;23.358;2023-06-22T05:22:56;91637.28;;;37.29;30.00
6395;BME280;3230;42.588;23.358;2023-06-22T05:25:21;91637.94;;;37.34;29.40
6395;BME280;3230;42.588;23.358;2023-06-22T05:27:50;91628.41;;;35.72;32.78
6395;BME280;3230;42.588;23.358;2023-06-22T05:30:17;91628.81;;;35.50;31.88
6395;BME280;3230;42.588;23.358;2023-06-22T05:32:43;91630.22;;;35.78;30.57
6395;BME280;3230;42.588;23.358;2023-06-22T05:35:09;91634.22;;;35.74;30.23
6395;BME280;3230;42.588;23.358;2023-06-22T05:37:34;91633.84;;;35.95;30.20
6395;BME280;3230;42.588;23.358;2023-06-22T05:40:00;91634.00;;;35.64;28.69
6395;BME280;3230;42.588;23.358;2023-06-22T05:42:25;91647.47;;;36.76;28.68
6395;BME280;3230;42.588;23.358;2023-06-22T05:44:52;91647.69;;;37.18;29.44
6395;BME280;3230;42.588;23.358;2023-06-22T05:47:18;91652.31;;;36.85;32.42
6395;BME280;3230;42.588;23.358;2023-06-22T05:49:43;91663.53;;;36.90;31.53
6395;BME280;3230;42.588;23.358;2023-06-22T05:52:09;91658.22;;;35.82;33.77
6395;BME280;3230;42.588;23.358;2023-06-22T05:54:34;91647.06;;;35.26;34.06
6395;BME280;3230;42.588;23.358;2023-06-22T05:57:00;91659.94;;;36.57;31.19
6395;BME280;3230;42.588;23.358;2023-06-22T05:59:26;91664.75;;;36.69;31.43
6395;BME280;3230;42.588;23.358;2023-06-22T06:01:51;91665.34;;;36.77;30.61
6395;BME280;3230;42.588;23.358;2023-06-22T06:04:18;91660.91;;;36.26;31.08
6395;BME280;3230;42.588;23.358;2023-06-22T06:06:43;91656.03;;;36.58;30.60
6395;BME280;3230;42.588;23.358;2023-06-22T06:09:09;91660.53;;;36.48;31.59
6395;BME280;3230;42.588;23.358;2023-06-22T06:11:36;91657.59;;;36.39;32.03
6395;BME280;3230;42.588;23.358;2023-06-22T06:14:01;91665.25;;;37.17;30.94
6395;BME280;3230;42.588;23.358;2023-06-22T06:16:27;91654.88;;;38.37;29.17
6395;BME280;3230;42.588;23.358;2023-06-22T06:18:52;91658.97;;;38.58;28.73
6395;BME280;3230;42.588;23.358;2023-06-22T06:21:20;91656.78;;;38.23;29.80
6395;BME280;3230;42.588;23.358;2023-06-22T06:23:45;91658.25;;;37.33;31.28
6395;BME280;3230;42.588;23.358;2023-06-22T06:26:10;91642.91;;;37.55;30.50
6395;BME280;3230;42.588;23.358;2023-06-22T06:28:36;91651.56;;;37.37;30.98
6395;BME280;3230;42.588;23.358;2023-06-22T06:31:02;91643.66;;;37.56;30.14
6395;BME280;3230;42.588;23.358;2023-06-22T06:33:27;91666.19;;;38.52;27.74
6395;BME280;3230;42.588;23.358;2023-06-22T06:35:53;91652.28;;;37.71;29.55
6395;BME280;3230;42.588;23.358;2023-06-22T06:38:18;91651.59;;;37.01;31.54
6395;BME280;3230;42.588;23.358;2023-06-22T06:40:43;91659.66;;;38.33;29.65
6395;BME280;3230;42.588;23.358;2023-06-22T06:43:10;91657.13;;;38.55;29.78
6395;BME280;3230;42.588;23.358;2023-06-22T06:45:35;91649.81;;;39.42;28.98
6395;BME280;3230;42.588;23.358;2023-06-22T06:48:01;91655.91;;;39.72;27.30
6395;BME280;3230;42.588;23.358;2023-06-22T06:50:27;91651.75;;;39.55;26.67
6395;BME280;3230;42.588;23.358;2023-06-22T06:52:53;91654.72;;;40.75;26.12
6395;BME280;3230;42.588;23.358;2023-06-22T06:55:19;91658.31;;;40.05;26.66
6395;BME280;3230;42.588;23.358;2023-06-22T06:57:45;91655.22;;;39.81;26.09
6395;BME280;3230;42.588;23.358;2023-06-22T07:00:14;91640.59;;;40.19;25.13
6395;BME280;3230;42.588;23.358;2023-06-22T07:02:42;91644.59;;;38.96;28.28
6395;BME280;3230;42.588;23.358;2023-06-22T07:05:08;91649.28;;;38.96;26.94
6395;BME280;3230;42.588;23.358;2023-06-22T07:07:34;91645.94;;;38.49;27.83
6395;BME280;3230;42.588;23.358;2023-06-22T07:10:00;91635.22;;;37.34;30.41
6395;BME280;3230;42.588;23.358;2023-06-22T07:12:26;91643.59;;;36.73;29.19
6395;BME280;3230;42.588;23.358;2023-06-22T07:14:52;91649.16;;;37.39;28.87
6395;BME280;3230;42.588;23.358;2023-06-22T07:17:18;91640.50;;;37.90;27.21
6395;BME280;3230;42.588;23.358;2023-06-22T07:19:43;91640.66;;;38.42;27.06
6395;BME280;3230;42.588;23.358;2023-06-22T07:22:08;91650.25;;;38.76;27.72
6395;BME280;3230;42.588;23.358;2023-06-22T07:24:34;91656.41;;;39.32;27.46
6395;BME280;3230;42.588;23.358;2023-06-22T07:26:59;91649.88;;;40.12;26.73
6395;BME280;3230;42.588;23.358;2023-06-22T07:29:25;91655.50;;;39.61;25.76
6395;BME280;3230;42.588;23.358;2023-06-22T07:31:52;91652.19;;;39.66;27.29
6395;BME280;3230;42.588;23.358;2023-06-22T07:34:18;91646.88;;;40.20;28.22
6395;BME280;3230;42.588;23.358;2023-06-22T07:36:44;91651.22;;;40.30;27.84
6395;BME280;3230;42.588;23.358;2023-06-22T07:39:09;91648.75;;;40.54;24.62
6395;BME280;3230;42.588;23.358;2023-06-22T07:41:35;91658.06;;;41.01;26.36
6395;BME280;3230;42.588;23.358;2023-06-22T07:44:02;91656.31;;;40.63;26.17
6395;BME280;3230;42.588;23.358;2023-06-22T07:46:28;91662.56;;;41.77;24.47
6395;BME280;3230;42.588;23.358;2023-06-22T07:48:56;91664.09;;;41.28;24.22
6395;BME280;3230;42.588;23.358;2023-06-22T07:51:21;91668.97;;;41.64;24.03
6395;BME280;3230;42.588;23.358;2023-06-22T07:53:47;91664.94;;;42.34;24.23
6395;BME280;3230;42.588;23.358;2023-06-22T07:56:13;91662.13;;;41.37;24.93
6395;BME280;3230;42.588;23.358;2023-06-22T07:58:39;91661.50;;;41.24;25.38
6395;BME280;3230;42.588;23.358;2023-06-22T08:01:04;91661.03;;;41.76;24.88
6395;BME280;3230;42.588;23.358;2023-06-22T08:03:30;91657.25;;;42.47;24.34
6395;BME280;3230;42.588;23.358;2023-06-22T08:05:55;91662.84;;;41.60;25.92
6395;BME280;3230;42.588;23.358;2023-06-22T08:08:21;91653.88;;;42.53;23.66
6395;BME280;3230;42.588;23.358;2023-06-22T08:10:46;91666.13;;;42.14;24.16
6395;BME280;3230;42.588;23.358;2023-06-22T08:13:12;91652.00;;;40.84;26.58
6395;BME280;3230;42.588;23.358;2023-06-22T08:15:37;91655.72;;;41.31;25.38
6395;BME280;3230;42.588;23.358;2023-06-22T08:18:03;91645.09;;;40.26;26.56
6395;BME280;3230;42.588;23.358;2023-06-22T08:20:28;91652.16;;;41.12;25.82
6395;BME280;3230;42.588;23.358;2023-06-22T08:22:55;91655.97;;;41.15;24.86
6395;BME280;3230;42.588;23.358;2023-06-22T08:25:21;91654.00;;;41.75;25.01
6395;BME280;3230;42.588;23.358;2023-06-22T08:27:47;91649.56;;;41.18;25.62
6395;BME280;3230;42.588;23.358;2023-06-22T08:30:16;91641.31;;;39.75;26.07
6395;BME280;3230;42.588;23.358;2023-06-22T08:32:43;91633.16;;;39.85;25.96
6395;BME280;3230;42.588;23.358;2023-06-22T08:35:09;91631.47;;;39.52;26.65
6395;BME280;3230;42.588;23.358;2023-06-22T08:37:34;91630.56;;;40.03;26.67
6395;BME280;3230;42.588;23.358;2023-06-22T08:40:03;91629.59;;;39.75;27.50
6395;BME280;3230;42.588;23.358;2023-06-22T08:42:40;91638.22;;;39.25;27.25
6395;BME280;3230;42.588;23.358;2023-06-22T08:45:06;91632.25;;;39.53;26.67
6395;BME280;3230;42.588;23.358;2023-06-22T08:47:32;91640.66;;;38.13;28.76
6395;BME280;3230;42.588;23.358;2023-06-22T08:49:57;91639.94;;;36.80;30.74
6395;BME280;3230;42.588;23.358;2023-06-22T08:52:23;91637.06;;;35.90;33.44
6395;BME280;3230;42.588;23.358;2023-06-22T08:54:48;91638.53;;;35.51;32.63
6395;BME280;3230;42.588;23.358;2023-06-22T08:57:14;91635.91;;;35.20;33.07
6395;BME280;3230;42.588;23.358;2023-06-22T08:59:39;91637.44;;;34.66;33.96
6395;BME280;3230;42.588;23.358;2023-06-22T09:02:05;91637.66;;;35.06;33.37
6395;BME280;3230;42.588;23.358;2023-06-22T09:04:31;91625.84;;;33.96;35.54
6395;BME280;3230;42.588;23.358;2023-06-22T09:07:00;91626.97;;;33.99;34.33
6395;BME280;3230;42.588;23.358;2023-06-22T09:09:26;91625.41;;;34.36;35.96
6395;BME280;3230;42.588;23.358;2023-06-22T09:11:51;91622.41;;;34.23;36.73
6395;BME280;3230;42.588;23.358;2023-06-22T09:14:16;91617.44;;;32.33;38.98
6395;BME280;3230;42.588;23.358;2023-06-22T09:16:42;91607.91;;;32.70;38.62
6395;BME280;3230;42.588;23.358;2023-06-22T09:19:07;91617.78;;;32.42;38.34
6395;BME280;3230;42.588;23.358;2023-06-22T09:21:33;91615.44;;;32.41;39.41
6395;BME280;3230;42.588;23.358;2023-06-22T09:23:58;91620.19;;;32.22;37.27
6395;BME280;3230;42.588;23.358;2023-06-22T09:26:24;91615.38;;;30.72;40.10
6395;BME280;3230;42.588;23.358;2023-06-22T09:28:49;91624.31;;;31.09;41.94
6395;BME280;3230;42.588;23.358;2023-06-22T09:31:15;91612.28;;;30.77;42.26
6395;BME280;3230;42.588;23.358;2023-06-22T09:33:41;91616.16;;;30.58;42.11
6395;BME280;3230;42.588;23.358;2023-06-22T09:36:07;91624.28;;;30.76;43.40
6395;BME280;3230;42.588;23.358;2023-06-22T09:38:36;91627.34;;;30.68;42.37
6395;BME280;3230;42.588;23.358;2023-06-22T09:41:02;91615.72;;;30.49;43.38
6395;BME280;3230;42.588;23.358;2023-06-22T09:43:28;91618.00;;;30.40;44.05
6395;BME280;3230;42.588;23.358;2023-06-22T09:45:53;91627.97;;;30.10;43.08
6395;BME280;3230;42.588;23.358;2023-06-22T09:48:18;91616.19;;;29.66;44.91
6395;BME280;3230;42.588;23.358;2023-06-22T09:50:44;91624.56;;;29.47;46.13
6395;BME280;3230;42.588;23.358;2023-06-22T09:53:09;91626.50;;;29.46;39.82
6395;BME280;3230;42.588;23.358;2023-06-22T09:55:35;91627.00;;;29.70;40.75
6395;BME280;3230;42.588;23.358;2023-06-22T09:58:00;91628.09;;;29.62;40.85
6395;BME280;3230;42.588;23.358;2023-06-22T10:00:25;91623.06;;;29.53;43.71
6395;BME280;3230;42.588;23.358;2023-06-22T10:02:52;91624.25;;;29.63;42.34
6395;BME280;3230;42.588;23.358;2023-06-22T10:05:17;91618.53;;;29.79;40.34
6395;BME280;3230;42.588;23.358;2023-06-22T10:07:43;91623.03;;;29.49;39.43
6395;BME280;3230;42.588;23.358;2023-06-22T10:10:10;91611.63;;;29.78;39.70
6395;BME280;3230;42.588;23.358;2023-06-22T10:12:36;91609.75;;;29.26;39.99
6395;BME280;3230;42.588;23.358;2023-06-22T10:15:02;91613.69;;;29.32;41.62
6395;BME280;3230;42.588;23.358;2023-06-22T10:17:28;91611.97;;;29.10;40.08
6395;BME280;3230;42.588;23.358;2023-06-22T10:19:53;91616.63;;;29.16;38.98
6395;BME280;3230;42.588;23.358;2023-06-22T10:22:18;91614.81;;;29.31;42.53
6395;BME280;3230;42.588;23.358;2023-06-22T10:24:44;91606.00;;;29.38;42.08
6395;BME280;3230;42.588;23.358;2023-06-22T10:27:11;91614.56;;;29.51;42.51
6395;BME280;3230;42.588;23.358;2023-06-22T10:29:37;91603.41;;;29.56;39.80
6395;BME280;3230;42.588;23.358;2023-06-22T10:32:03;91598.41;;;29.65;41.34
6395;BME280;3230;42.588;23.358;2023-06-22T10:34:29;91609.59;;;29.60;39.02
6395;BME280;3230;42.588;23.358;2023-06-22T10:36:54;91599.22;;;29.70;40.91
6395;BME280;3230;42.588;23.358;2023-06-22T10:39:20;91604.59;;;29.62;38.57
6395;BME280;3230;42.588;23.358;2023-06-22T10:41:45;91596.91;;;29.75;40.33
6395;BME280;3230;42.588;23.358;2023-06-22T10:44:11;91601.84;;;29.55;39.87
6395;BME280;3230;42.588;23.358;2023-06-22T10:46:37;91606.13;;;29.56;40.15
6395;BME280;3230;42.588;23.358;2023-06-22T10:49:02;91588.50;;;29.84;39.75
6395;BME280;3230;42.588;23.358;2023-06-22T10:51:28;91597.03;;;29.93;42.38
6395;BME280;3230;42.588;23.358;2023-06-22T10:53:53;91594.72;;;29.95;41.06
6395;BME280;3230;42.588;23.358;2023-06-22T10:56:19;91599.34;;;29.91;39.98
6395;BME280;3230;42.588;23.358;2023-06-22T10:58:45;91591.28;;;30.09;38.51
6395;BME280;3230;42.588;23.358;2023-06-22T11:01:10;91592.13;;;30.24;40.24
6395;BME280;3230;42.588;23.358;2023-06-22T11:03:35;91601.34;;;30.12;37.51
6395;BME280;3230;42.588;23.358;2023-06-22T11:06:01;91589.78;;;30.12;35.98
6395;BME280;3230;42.588;23.358;2023-06-22T11:08:26;91592.44;;;30.05;38.73
6395;BME280;3230;42.588;23.358;2023-06-22T11:10:51;91592.44;;;30.05;39.91
6395;BME280;3230;42.588;23.358;2023-06-22T11:13:17;91594.41;;;30.19;38.03
6395;BME280;3230;42.588;23.358;2023-06-22T11:15:43;91584.59;;;29.71;39.38
6395;BME280;3230;42.588;23.358;2023-06-22T11:18:08;91584.56;;;29.63;39.72
6395;BME280;3230;42.588;23.358;2023-06-22T11:20:34;91580.81;;;29.93;39.95
6395;BME280;3230;42.588;23.358;2023-06-22T11:23:06;91578.03;;;29.79;39.99
6395;BME280;3230;42.588;23.358;2023-06-22T11:25:32;91573.03;;;29.81;40.11
6395;BME280;3230;42.588;23.358;2023-06-22T11:28:03;91581.91;;;29.85;39.38
6395;BME280;3230;42.588;23.358;2023-06-22T11:30:29;91583.00;;;29.66;39.79
6395;BME280;3230;42.588;23.358;2023-06-22T11:32:54;91576.41;;;29.52;40.76
6395;BME280;3230;42.588;23.358;2023-06-22T11:35:19;91571.88;;;29.78;40.96
6395;BME280;3230;42.588;23.358;2023-06-22T11:37:45;91574.19;;;29.80;40.36
6395;BME280;3230;42.588;23.358;2023-06-22T11:40:11;91573.88;;;29.99;39.88
6395;BME280;3230;42.588;23.358;2023-06-22T11:42:36;91579.25;;;29.92;39.67
6395;BME280;3230;42.588;23.358;2023-06-22T11:45:04;91579.22;;;29.81;38.88
6395;BME280;3230;42.588;23.358;2023-06-22T11:47:29;91562.19;;;29.74;39.27
6395;BME280;3230;42.588;23.358;2023-06-22T11:49:55;91575.31;;;29.72;38.88
6395;BME280;3230;42.588;23.358;2023-06-22T11:52:21;91564.81;;;29.52;41.01
6395;BME280;3230;42.588;23.358;2023-06-22T11:54:46;91558.75;;;29.77;42.20
6395;BME280;3230;42.588;23.358;2023-06-22T11:57:12;91556.09;;;29.84;41.09
6395;BME280;3230;42.588;23.358;2023-06-22T11:59:37;91556.91;;;29.92;39.85
6395;BME280;3230;42.588;23.358;2023-06-22T12:02:02;91563.06;;;29.92;39.88
6395;BME280;3230;42.588;23.358;2023-06-22T12:04:29;91546.88;;;29.99;40.61
6395;BME280;3230;42.588;23.358;2023-06-22T12:06:54;91550.75;;;29.95;38.82
6395;BME280;3230;42.588;23.358;2023-06-22T12:09:20;91546.09;;;29.92;38.03
6395;BME280;3230;42.588;23.358;2023-06-22T12:11:45;91562.38;;;30.13;38.33
6395;BME280;3230;42.588;23.358;2023-06-22T12:14:11;91560.06;;;30.15;40.55
6395;BME280;3230;42.588;23.358;2023-06-22T12:16:36;91558.53;;;30.40;39.32
6395;BME280;3230;42.588;23.358;2023-06-22T12:19:01;91562.44;;;30.71;38.09
6395;BME280;3230;42.588;23.358;2023-06-22T12:21:27;91568.25;;;30.81;37.56
6395;BME280;3230;42.588;23.358;2023-06-22T12:23:54;91571.31;;;31.01;37.20
6395;BME280;3230;42.588;23.358;2023-06-22T12:26:19;91560.13;;;30.88;38.06
6395;BME280;3230;42.588;23.358;2023-06-22T12:28:44;91557.81;;;30.57;40.49
6395;BME280;3230;42.588;23.358;2023-06-22T12:31:10;91544.63;;;30.30;41.12
6395;BME280;3230;42.588;23.358;2023-06-22T12:33:36;91550.72;;;29.91;41.69
6395;BME280;3230;42.588;23.358;2023-06-22T12:36:01;91553.69;;;29.72;42.47
6395;BME280;3230;42.588;23.358;2023-06-22T12:38:27;91565.22;;;29.58;42.73
6395;BME280;3230;42.588;23.358;2023-06-22T12:40:52;91557.16;;;28.98;47.78
6395;BME280;3230;42.588;23.358;2023-06-22T12:43:18;91563.00;;;28.59;46.28
6395;BME280;3230;42.588;23.358;2023-06-22T12:45:43;91575.44;;;28.26;50.34
6395;BME280;3230;42.588;23.358;2023-06-22T12:48:09;91605.66;;;27.44;65.01
6395;BME280;3230;42.588;23.358;2023-06-22T12:50:34;91605.06;;;26.11;76.21
6395;BME280;3230;42.588;23.358;2023-06-22T12:53:00;91600.06;;;25.35;80.43
6395;BME280;3230;42.588;23.358;2023-06-22T12:55:27;91604.03;;;24.25;92.71
6395;BME280;3230;42.588;23.358;2023-06-22T12:57:53;91618.94;;;23.94;96.09
6395;BME280;3230;42.588;23.358;2023-06-22T13:00:18;91643.00;;;23.54;96.52
6395;BME280;3230;42.588;23.358;2023-06-22T13:02:45;91629.13;;;23.23;100.00
6395;BME280;3230;42.588;23.358;2023-06-22T13:05:10;91619.78;;;22.55;100.00
6395;BME280;3230;42.588;23.358;2023-06-22T13:07:36;91633.47;;;22.78;100.00
6395;BME280;3230;42.588;23.358;2023-06-22T13:10:01;91636.25;;;22.70;100.00
6395;BME280;3230;42.588;23.358;2023-06-22T13:12:26;91640.38;;;22.92;100.00